sensor_id;sensor_type;location;lat;lon;timestamp;P1;durP1;ratioP1;P2;durP2;ratioP2
4519;SDS011;2272;49.226;8.108;2022-12-29T00:01:51;3.23;;;2.43;;
4519;SDS011;2272;49.226;8.108;2022-12-29T00:04:18;4.53;;;1.50;;
4519;SDS011;2272;49.226;8.108;2022-12-29T00:06:45;1.53;;;1.43;;
4519;SDS011;2272;49.226;8.108;2022-12-29T00:09:12;7.60;;;1.97;;
4519;SDS011;2272;49.226;8.108;2022-12-29T00:11:39;3.50;;;1.60;;
4519;SDS011;2272;49.226;8.108;2022-12-29T00:14:07;6.97;;;1.70;;
4519;SDS011;2272;49.226;8.108;2022-12-29T00:16:54;1.70;;;1.60;;
4519;SDS011;2272;49.226;8.108;2022-12-29T00:19:21;1.10;;;1.10;;
4519;SDS011;2272;49.226;8.108;2022-12-29T00:22:20;1.50;;;1.40;;
4519;SDS011;2272;49.226;8.108;2022-12-29T00:25:05;1.63;;;1.63;;
4519;SDS011;2272;49.226;8.108;2022-12-29T00:27:52;4.00;;;1.60;;
4519;SDS011;2272;49.226;8.108;2022-12-29T00:30:36;2.60;;;1.43;;
4519;SDS011;2272;49.226;8.108;2022-12-29T00:33:26;1.10;;;1.10;;
4519;SDS011;2272;49.226;8.108;2022-12-29T00:36:15;2.40;;;1.20;;
4519;SDS011;2272;49.226;8.108;2022-12-29T00:38:45;6.93;;;1.53;;
4519;SDS011;2272;49.226;8.108;2022-12-29T00:41:32;2.97;;;1.47;;
4519;SDS011;2272;49.226;8.108;2022-12-29T00:44:16;4.83;;;1.60;;
4519;SDS011;2272;49.226;8.108;2022-12-29T00:46:43;1.67;;;1.23;;
4519;SDS011;2272;49.226;8.108;2022-12-29T00:49:12;2.50;;;1.10;;
4519;SDS011;2272;49.226;8.108;2022-12-29T00:51:58;3.13;;;1.10;;
4519;SDS011;2272;49.226;8.108;2022-12-29T00:54:26;2.50;;;1.27;;
4519;SDS011;2272;49.226;8.108;2022-12-29T00:56:53;2.77;;;0.90;;
4519;SDS011;2272;49.226;8.108;2022-12-29T00:59:20;1.60;;;1.50;;
4519;SDS011;2272;49.226;8.108;2022-12-29T01:01:49;1.10;;;1.10;;
4519;SDS011;2272;49.226;8.108;2022-12-29T01:04:17;2.00;;;1.50;;
4519;SDS011;2272;49.226;8.108;2022-12-29T01:06:45;13.90;;;1.33;;
4519;SDS011;2272;49.226;8.108;2022-12-29T01:09:12;1.20;;;1.10;;
4519;SDS011;2272;49.226;8.108;2022-12-29T01:11:56;1.43;;;1.23;;
4519;SDS011;2272;49.226;8.108;2022-12-29T01:14:23;1.70;;;1.37;;
4519;SDS011;2272;49.226;8.108;2022-12-29T01:16:50;7.50;;;2.00;;
4519;SDS011;2272;49.226;8.108;2022-12-29T01:19:18;7.00;;;1.67;;
4519;SDS011;2272;49.226;8.108;2022-12-29T01:21:46;3.10;;;1.30;;
4519;SDS011;2272;49.226;8.108;2022-12-29T01:24:13;2.00;;;1.53;;
4519;SDS011;2272;49.226;8.108;2022-12-29T01:26:39;0.90;;;0.90;;
4519;SDS011;2272;49.226;8.108;2022-12-29T01:29:06;4.13;;;1.50;;
4519;SDS011;2272;49.226;8.108;2022-12-29T01:31:33;1.33;;;1.10;;
4519;SDS011;2272;49.226;8.108;2022-12-29T01:34:00;3.50;;;1.47;;
4519;SDS011;2272;49.226;8.108;2022-12-29T01:36:28;1.37;;;1.27;;
4519;SDS011;2272;49.226;8.108;2022-12-29T01:38:55;0.80;;;0.80;;
4519;SDS011;2272;49.226;8.108;2022-12-29T01:41:22;2.50;;;1.33;;
4519;SDS011;2272;49.226;8.108;2022-12-29T01:43:49;1.50;;;0.97;;
4519;SDS011;2272;49.226;8.108;2022-12-29T01:46:19;1.83;;;1.53;;
4519;SDS011;2272;49.226;8.108;2022-12-29T01:48:50;2.93;;;1.40;;
4519;SDS011;2272;49.226;8.108;2022-12-29T01:51:20;0.90;;;0.90;;
4519;SDS011;2272;49.226;8.108;2022-12-29T01:53:49;1.83;;;1.63;;
4519;SDS011;2272;49.226;8.108;2022-12-29T01:56:17;1.30;;;1.20;;
4519;SDS011;2272;49.226;8.108;2022-12-29T01:58:46;3.23;;;1.30;;
4519;SDS011;2272;49.226;8.108;2022-12-29T02:01:15;4.83;;;1.57;;
4519;SDS011;2272;49.226;8.108;2022-12-29T02:03:45;1.30;;;1.20;;
4519;SDS011;2272;49.226;8.108;2022-12-29T02:06:13;1.40;;;1.30;;
4519;SDS011;2272;49.226;8.108;2022-12-29T02:08:42;2.90;;;1.00;;
4519;SDS011;2272;49.226;8.108;2022-12-29T02:11:13;1.10;;;1.00;;
4519;SDS011;2272;49.226;8.108;2022-12-29T02:13:41;1.90;;;1.20;;
4519;SDS011;2272;49.226;8.108;2022-12-29T02:16:11;1.27;;;1.17;;
4519;SDS011;2272;49.226;8.108;2022-12-29T02:18:48;2.70;;;1.37;;
4519;SDS011;2272;49.226;8.108;2022-12-29T02:21:33;2.20;;;1.03;;
4519;SDS011;2272;49.226;8.108;2022-12-29T02:27:31;1.30;;;1.20;;
4519;SDS011;2272;49.226;8.108;2022-12-29T02:30:15;2.60;;;1.10;;
4519;SDS011;2272;49.226;8.108;2022-12-29T02:32:57;1.73;;;1.27;;
4519;SDS011;2272;49.226;8.108;2022-12-29T02:35:33;1.17;;;1.07;;
4519;SDS011;2272;49.226;8.108;2022-12-29T02:38:05;1.57;;;1.47;;
4519;SDS011;2272;49.226;8.108;2022-12-29T02:40:41;1.50;;;1.40;;
4519;SDS011;2272;49.226;8.108;2022-12-29T02:43:17;0.90;;;0.90;;
4519;SDS011;2272;49.226;8.108;2022-12-29T02:45:53;2.00;;;1.80;;
4519;SDS011;2272;49.226;8.108;2022-12-29T02:48:22;4.00;;;1.20;;
4519;SDS011;2272;49.226;8.108;2022-12-29T02:50:55;2.37;;;1.10;;
4519;SDS011;2272;49.226;8.108;2022-12-29T02:53:26;2.00;;;1.20;;
4519;SDS011;2272;49.226;8.108;2022-12-29T02:56:12;1.37;;;0.90;;
4519;SDS011;2272;49.226;8.108;2022-12-29T02:58:39;1.53;;;1.20;;
4519;SDS011;2272;49.226;8.108;2022-12-29T03:01:11;6.90;;;1.40;;
4519;SDS011;2272;49.226;8.108;2022-12-29T03:03:48;2.10;;;1.10;;
4519;SDS011;2272;49.226;8.108;2022-12-29T03:06:28;1.47;;;1.37;;
4519;SDS011;2272;49.226;8.108;2022-12-29T03:09:02;1.80;;;1.70;;
4519;SDS011;2272;49.226;8.108;2022-12-29T03:11:38;4.40;;;1.57;;
4519;SDS011;2272;49.226;8.108;2022-12-29T03:14:31;9.37;;;1.00;;
4519;SDS011;2272;49.226;8.108;2022-12-29T03:17:22;4.47;;;1.30;;
4519;SDS011;2272;49.226;8.108;2022-12-29T03:19:54;2.93;;;1.00;;
4519;SDS011;2272;49.226;8.108;2022-12-29T03:22:30;3.70;;;1.20;;
4519;SDS011;2272;49.226;8.108;2022-12-29T03:25:01;1.43;;;1.00;;
4519;SDS011;2272;49.226;8.108;2022-12-29T03:27:31;4.00;;;1.10;;
4519;SDS011;2272;49.226;8.108;2022-12-29T03:30:03;2.40;;;1.00;;
4519;SDS011;2272;49.226;8.108;2022-12-29T03:32:36;0.90;;;0.90;;
4519;SDS011;2272;49.226;8.108;2022-12-29T03:35:06;1.83;;;1.30;;
4519;SDS011;2272;49.226;8.108;2022-12-29T03:37:35;3.50;;;1.20;;
4519;SDS011;2272;49.226;8.108;2022-12-29T03:40:07;1.50;;;1.40;;
4519;SDS011;2272;49.226;8.108;2022-12-29T03:42:35;1.47;;;1.20;;
4519;SDS011;2272;49.226;8.108;2022-12-29T03:45:03;3.67;;;1.33;;
4519;SDS011;2272;49.226;8.108;2022-12-29T03:47:32;1.20;;;1.20;;
4519;SDS011;2272;49.226;8.108;2022-12-29T03:50:00;1.10;;;1.00;;
4519;SDS011;2272;49.226;8.108;2022-12-29T03:52:27;1.93;;;1.83;;
4519;SDS011;2272;49.226;8.108;2022-12-29T03:54:53;3.27;;;1.47;;
4519;SDS011;2272;49.226;8.108;2022-12-29T03:57:20;2.17;;;1.53;;
4519;SDS011;2272;49.226;8.108;2022-12-29T03:59:46;1.00;;;0.90;;
4519;SDS011;2272;49.226;8.108;2022-12-29T04:02:13;1.10;;;1.10;;
4519;SDS011;2272;49.226;8.108;2022-12-29T04:04:40;1.30;;;1.20;;
4519;SDS011;2272;49.226;8.108;2022-12-29T04:07:08;2.77;;;1.20;;
4519;SDS011;2272;49.226;8.108;2022-12-29T04:09:35;1.47;;;1.10;;
4519;SDS011;2272;49.226;8.108;2022-12-29T04:12:01;2.00;;;1.10;;
4519;SDS011;2272;49.226;8.108;2022-12-29T04:14:28;3.43;;;1.40;;
4519;SDS011;2272;49.226;8.108;2022-12-29T04:16:55;1.20;;;1.10;;
4519;SDS011;2272;49.226;8.108;2022-12-29T04:19:21;1.27;;;1.17;;
4519;SDS011;2272;49.226;8.108;2022-12-29T04:21:48;1.43;;;1.00;;
4519;SDS011;2272;49.226;8.108;2022-12-29T04:24:16;0.90;;;0.90;;
4519;SDS011;2272;49.226;8.108;2022-12-29T04:26:43;3.17;;;1.20;;
4519;SDS011;2272;49.226;8.108;2022-12-29T04:29:10;3.17;;;1.20;;
4519;SDS011;2272;49.226;8.108;2022-12-29T04:31:36;1.83;;;1.70;;
4519;SDS011;2272;49.226;8.108;2022-12-29T04:34:03;1.70;;;1.60;;
4519;SDS011;2272;49.226;8.108;2022-12-29T04:36:30;2.40;;;1.03;;
4519;SDS011;2272;49.226;8.108;2022-12-29T04:38:56;4.13;;;1.10;;
4519;SDS011;2272;49.226;8.108;2022-12-29T04:41:24;1.13;;;1.00;;
4519;SDS011;2272;49.226;8.108;2022-12-29T04:43:51;1.13;;;1.10;;
4519;SDS011;2272;49.226;8.108;2022-12-29T04:46:18;3.20;;;1.10;;
4519;SDS011;2272;49.226;8.108;2022-12-29T04:48:45;3.03;;;1.30;;
4519;SDS011;2272;49.226;8.108;2022-12-29T04:51:12;0.80;;;0.80;;
4519;SDS011;2272;49.226;8.108;2022-12-29T04:53:38;1.00;;;1.00;;
4519;SDS011;2272;49.226;8.108;2022-12-29T04:56:05;2.03;;;1.30;;
4519;SDS011;2272;49.226;8.108;2022-12-29T04:58:33;1.07;;;1.07;;
4519;SDS011;2272;49.226;8.108;2022-12-29T05:01:00;1.27;;;1.27;;
4519;SDS011;2272;49.226;8.108;2022-12-29T05:03:27;2.27;;;1.10;;
4519;SDS011;2272;49.226;8.108;2022-12-29T05:05:54;1.30;;;1.20;;
4519;SDS011;2272;49.226;8.108;2022-12-29T05:08:21;1.20;;;1.20;;
4519;SDS011;2272;49.226;8.108;2022-12-29T05:10:49;2.70;;;1.47;;
4519;SDS011;2272;49.226;8.108;2022-12-29T05:13:16;3.27;;;1.73;;
4519;SDS011;2272;49.226;8.108;2022-12-29T05:15:47;1.20;;;1.20;;
4519;SDS011;2272;49.226;8.108;2022-12-29T05:18:15;1.33;;;1.10;;
4519;SDS011;2272;49.226;8.108;2022-12-29T05:20:42;1.73;;;1.37;;
4519;SDS011;2272;49.226;8.108;2022-12-29T05:23:08;1.63;;;1.40;;
4519;SDS011;2272;49.226;8.108;2022-12-29T05:25:35;4.40;;;1.10;;
4519;SDS011;2272;49.226;8.108;2022-12-29T05:28:02;1.13;;;1.13;;
4519;SDS011;2272;49.226;8.108;2022-12-29T05:30:28;5.60;;;1.60;;
4519;SDS011;2272;49.226;8.108;2022-12-29T05:32:56;1.50;;;1.40;;
4519;SDS011;2272;49.226;8.108;2022-12-29T05:35:23;1.83;;;1.47;;
4519;SDS011;2272;49.226;8.108;2022-12-29T05:37:50;1.60;;;1.50;;
4519;SDS011;2272;49.226;8.108;2022-12-29T05:40:16;2.07;;;1.40;;
4519;SDS011;2272;49.226;8.108;2022-12-29T05:42:43;5.67;;;1.47;;
4519;SDS011;2272;49.226;8.108;2022-12-29T05:45:10;1.63;;;1.53;;
4519;SDS011;2272;49.226;8.108;2022-12-29T05:47:36;1.67;;;1.57;;
4519;SDS011;2272;49.226;8.108;2022-12-29T05:50:05;1.90;;;1.33;;
4519;SDS011;2272;49.226;8.108;2022-12-29T05:52:32;4.00;;;1.60;;
4519;SDS011;2272;49.226;8.108;2022-12-29T05:54:58;6.20;;;1.70;;
4519;SDS011;2272;49.226;8.108;2022-12-29T05:57:25;2.20;;;1.70;;
4519;SDS011;2272;49.226;8.108;2022-12-29T05:59:52;3.40;;;1.80;;
4519;SDS011;2272;49.226;8.108;2022-12-29T06:02:18;3.90;;;1.43;;
4519;SDS011;2272;49.226;8.108;2022-12-29T06:04:45;1.30;;;1.20;;
4519;SDS011;2272;49.226;8.108;2022-12-29T06:07:13;1.63;;;1.40;;
4519;SDS011;2272;49.226;8.108;2022-12-29T06:09:39;2.40;;;1.43;;
4519;SDS011;2272;49.226;8.108;2022-12-29T06:12:06;24.37;;;2.80;;
4519;SDS011;2272;49.226;8.108;2022-12-29T06:14:33;12.80;;;1.70;;
4519;SDS011;2272;49.226;8.108;2022-12-29T06:16:59;1.90;;;1.47;;
4519;SDS011;2272;49.226;8.108;2022-12-29T06:19:26;7.30;;;1.87;;
4519;SDS011;2272;49.226;8.108;2022-12-29T06:21:53;1.50;;;1.40;;
4519;SDS011;2272;49.226;8.108;2022-12-29T06:24:21;4.23;;;2.17;;
4519;SDS011;2272;49.226;8.108;2022-12-29T06:26:48;4.70;;;1.83;;
4519;SDS011;2272;49.226;8.108;2022-12-29T06:29:14;2.80;;;1.30;;
4519;SDS011;2272;49.226;8.108;2022-12-29T06:31:41;7.90;;;1.43;;
4519;SDS011;2272;49.226;8.108;2022-12-29T06:34:10;1.77;;;1.50;;
4519;SDS011;2272;49.226;8.108;2022-12-29T06:36:36;2.43;;;1.67;;
4519;SDS011;2272;49.226;8.108;2022-12-29T06:39:03;4.93;;;1.87;;
4519;SDS011;2272;49.226;8.108;2022-12-29T06:41:31;3.40;;;1.73;;
4519;SDS011;2272;49.226;8.108;2022-12-29T06:43:58;4.43;;;1.87;;
4519;SDS011;2272;49.226;8.108;2022-12-29T06:46:24;7.53;;;1.60;;
4519;SDS011;2272;49.226;8.108;2022-12-29T06:48:51;2.30;;;2.00;;
4519;SDS011;2272;49.226;8.108;2022-12-29T06:51:18;1.50;;;1.40;;
4519;SDS011;2272;49.226;8.108;2022-12-29T06:53:44;4.57;;;2.50;;
4519;SDS011;2272;49.226;8.108;2022-12-29T06:56:11;1.77;;;1.40;;
4519;SDS011;2272;49.226;8.108;2022-12-29T06:58:39;1.80;;;1.70;;
4519;SDS011;2272;49.226;8.108;2022-12-29T07:01:06;2.40;;;1.80;;
4519;SDS011;2272;49.226;8.108;2022-12-29T07:03:32;5.53;;;2.40;;
4519;SDS011;2272;49.226;8.108;2022-12-29T07:05:59;8.73;;;1.50;;
4519;SDS011;2272;49.226;8.108;2022-12-29T07:08:26;3.23;;;1.83;;
4519;SDS011;2272;49.226;8.108;2022-12-29T07:10:52;2.23;;;2.10;;
4519;SDS011;2272;49.226;8.108;2022-12-29T07:13:19;2.40;;;1.47;;
4519;SDS011;2272;49.226;8.108;2022-12-29T07:15:47;3.10;;;2.57;;
4519;SDS011;2272;49.226;8.108;2022-12-29T07:18:14;2.30;;;2.07;;
4519;SDS011;2272;49.226;8.108;2022-12-29T07:20:40;4.00;;;2.20;;
4519;SDS011;2272;49.226;8.108;2022-12-29T07:23:07;2.50;;;1.90;;
4519;SDS011;2272;49.226;8.108;2022-12-29T07:25:34;3.53;;;2.13;;
4519;SDS011;2272;49.226;8.108;2022-12-29T07:28:01;3.40;;;2.70;;
4519;SDS011;2272;49.226;8.108;2022-12-29T07:30:27;6.73;;;2.73;;
4519;SDS011;2272;49.226;8.108;2022-12-29T07:32:56;6.90;;;3.30;;
4519;SDS011;2272;49.226;8.108;2022-12-29T07:35:23;2.83;;;2.60;;
4519;SDS011;2272;49.226;8.108;2022-12-29T07:37:49;4.30;;;2.20;;
4519;SDS011;2272;49.226;8.108;2022-12-29T07:40:16;2.70;;;2.23;;
4519;SDS011;2272;49.226;8.108;2022-12-29T07:42:43;5.77;;;2.20;;
4519;SDS011;2272;49.226;8.108;2022-12-29T07:45:10;2.13;;;2.00;;
4519;SDS011;2272;49.226;8.108;2022-12-29T07:47:37;2.53;;;1.70;;
4519;SDS011;2272;49.226;8.108;2022-12-29T07:50:06;3.00;;;2.20;;
4519;SDS011;2272;49.226;8.108;2022-12-29T07:52:32;3.27;;;2.17;;
4519;SDS011;2272;49.226;8.108;2022-12-29T07:54:59;1.53;;;1.40;;
4519;SDS011;2272;49.226;8.108;2022-12-29T07:57:26;2.00;;;1.90;;
4519;SDS011;2272;49.226;8.108;2022-12-29T07:59:52;2.10;;;1.90;;
4519;SDS011;2272;49.226;8.108;2022-12-29T08:02:19;5.07;;;1.70;;
4519;SDS011;2272;49.226;8.108;2022-12-29T08:04:46;2.20;;;1.47;;
4519;SDS011;2272;49.226;8.108;2022-12-29T08:07:14;2.17;;;1.97;;
4519;SDS011;2272;49.226;8.108;2022-12-29T08:09:40;2.73;;;1.87;;
4519;SDS011;2272;49.226;8.108;2022-12-29T08:12:08;2.93;;;2.10;;
4519;SDS011;2272;49.226;8.108;2022-12-29T08:14:36;3.27;;;2.67;;
4519;SDS011;2272;49.226;8.108;2022-12-29T08:17:02;5.17;;;2.50;;
4519;SDS011;2272;49.226;8.108;2022-12-29T08:19:29;5.03;;;3.50;;
4519;SDS011;2272;49.226;8.108;2022-12-29T08:21:56;7.97;;;3.23;;
4519;SDS011;2272;49.226;8.108;2022-12-29T08:24:24;6.23;;;2.50;;
4519;SDS011;2272;49.226;8.108;2022-12-29T08:26:50;4.77;;;2.80;;
4519;SDS011;2272;49.226;8.108;2022-12-29T08:29:17;5.03;;;2.30;;
4519;SDS011;2272;49.226;8.108;2022-12-29T08:31:44;4.17;;;3.47;;
4519;SDS011;2272;49.226;8.108;2022-12-29T08:34:11;4.60;;;2.50;;
4519;SDS011;2272;49.226;8.108;2022-12-29T08:36:37;3.70;;;3.40;;
4519;SDS011;2272;49.226;8.108;2022-12-29T08:39:04;6.43;;;2.43;;
4519;SDS011;2272;49.226;8.108;2022-12-29T08:41:32;5.80;;;3.07;;
4519;SDS011;2272;49.226;8.108;2022-12-29T08:43:59;2.50;;;1.90;;
4519;SDS011;2272;49.226;8.108;2022-12-29T08:46:26;3.63;;;2.47;;
4519;SDS011;2272;49.226;8.108;2022-12-29T08:48:52;2.53;;;2.27;;
4519;SDS011;2272;49.226;8.108;2022-12-29T08:51:19;4.00;;;2.83;;
4519;SDS011;2272;49.226;8.108;2022-12-29T08:53:46;10.73;;;2.57;;
4519;SDS011;2272;49.226;8.108;2022-12-29T08:56:13;6.80;;;3.23;;
4519;SDS011;2272;49.226;8.108;2022-12-29T08:58:41;3.20;;;1.97;;
4519;SDS011;2272;49.226;8.108;2022-12-29T09:01:08;4.23;;;2.03;;
4519;SDS011;2272;49.226;8.108;2022-12-29T09:03:36;2.90;;;2.50;;
4519;SDS011;2272;49.226;8.108;2022-12-29T09:06:02;4.87;;;3.00;;
4519;SDS011;2272;49.226;8.108;2022-12-29T09:08:29;3.23;;;2.70;;
4519;SDS011;2272;49.226;8.108;2022-12-29T09:11:04;4.07;;;2.80;;
4519;SDS011;2272;49.226;8.108;2022-12-29T09:13:32;19.67;;;2.67;;
4519;SDS011;2272;49.226;8.108;2022-12-29T09:16:00;2.73;;;2.13;;
4519;SDS011;2272;49.226;8.108;2022-12-29T09:18:27;4.67;;;3.33;;
4519;SDS011;2272;49.226;8.108;2022-12-29T09:20:55;7.00;;;4.00;;
4519;SDS011;2272;49.226;8.108;2022-12-29T09:23:23;4.63;;;3.00;;
4519;SDS011;2272;49.226;8.108;2022-12-29T09:25:50;2.60;;;2.17;;
4519;SDS011;2272;49.226;8.108;2022-12-29T09:28:17;3.20;;;2.93;;
4519;SDS011;2272;49.226;8.108;2022-12-29T09:30:43;6.00;;;3.53;;
4519;SDS011;2272;49.226;8.108;2022-12-29T09:33:11;4.93;;;3.77;;
4519;SDS011;2272;49.226;8.108;2022-12-29T09:35:40;3.47;;;2.97;;
4519;SDS011;2272;49.226;8.108;2022-12-29T09:38:08;2.80;;;2.70;;
4519;SDS011;2272;49.226;8.108;2022-12-29T09:40:35;5.83;;;3.20;;
4519;SDS011;2272;49.226;8.108;2022-12-29T09:43:08;3.57;;;2.90;;
4519;SDS011;2272;49.226;8.108;2022-12-29T09:45:52;12.07;;;3.00;;
4519;SDS011;2272;49.226;8.108;2022-12-29T09:48:27;7.77;;;3.50;;
4519;SDS011;2272;49.226;8.108;2022-12-29T09:50:59;3.63;;;3.30;;
4519;SDS011;2272;49.226;8.108;2022-12-29T09:53:29;5.83;;;3.30;;
4519;SDS011;2272;49.226;8.108;2022-12-29T09:56:02;7.83;;;4.80;;
4519;SDS011;2272;49.226;8.108;2022-12-29T09:58:32;4.90;;;4.40;;
4519;SDS011;2272;49.226;8.108;2022-12-29T10:01:06;11.03;;;5.90;;
4519;SDS011;2272;49.226;8.108;2022-12-29T10:03:40;12.30;;;6.97;;
4519;SDS011;2272;49.226;8.108;2022-12-29T10:06:12;4.93;;;4.10;;
4519;SDS011;2272;49.226;8.108;2022-12-29T10:08:44;4.60;;;3.53;;
4519;SDS011;2272;49.226;8.108;2022-12-29T10:11:22;6.37;;;3.00;;
4519;SDS011;2272;49.226;8.108;2022-12-29T10:14:02;2.93;;;2.60;;
4519;SDS011;2272;49.226;8.108;2022-12-29T10:16:45;4.23;;;2.90;;
4519;SDS011;2272;49.226;8.108;2022-12-29T10:19:26;5.50;;;3.97;;
4519;SDS011;2272;49.226;8.108;2022-12-29T10:22:04;4.00;;;3.57;;
4519;SDS011;2272;49.226;8.108;2022-12-29T10:24:39;2.50;;;2.40;;
4519;SDS011;2272;49.226;8.108;2022-12-29T10:27:08;5.60;;;3.50;;
4519;SDS011;2272;49.226;8.108;2022-12-29T10:29:39;6.83;;;3.00;;
4519;SDS011;2272;49.226;8.108;2022-12-29T10:32:18;2.63;;;2.43;;
4519;SDS011;2272;49.226;8.108;2022-12-29T10:34:53;2.40;;;2.23;;
4519;SDS011;2272;49.226;8.108;2022-12-29T10:37:26;4.23;;;2.37;;
4519;SDS011;2272;49.226;8.108;2022-12-29T10:39:58;2.53;;;2.33;;
4519;SDS011;2272;49.226;8.108;2022-12-29T10:42:28;2.43;;;2.23;;
4519;SDS011;2272;49.226;8.108;2022-12-29T10:44:59;6.60;;;2.30;;
4519;SDS011;2272;49.226;8.108;2022-12-29T10:47:26;4.63;;;2.27;;
4519;SDS011;2272;49.226;8.108;2022-12-29T10:49:57;7.13;;;4.27;;
4519;SDS011;2272;49.226;8.108;2022-12-29T10:52:25;2.80;;;2.60;;
4519;SDS011;2272;49.226;8.108;2022-12-29T10:54:54;2.50;;;2.30;;
4519;SDS011;2272;49.226;8.108;2022-12-29T10:57:25;4.60;;;2.03;;
4519;SDS011;2272;49.226;8.108;2022-12-29T10:59:54;21.67;;;2.70;;
4519;SDS011;2272;49.226;8.108;2022-12-29T11:02:38;2.77;;;2.03;;
4519;SDS011;2272;49.226;8.108;2022-12-29T11:05:21;4.20;;;2.17;;
4519;SDS011;2272;49.226;8.108;2022-12-29T11:07:57;2.10;;;1.90;;
4519;SDS011;2272;49.226;8.108;2022-12-29T11:10:29;2.03;;;1.93;;
4519;SDS011;2272;49.226;8.108;2022-12-29T11:13:02;9.33;;;2.00;;
4519;SDS011;2272;49.226;8.108;2022-12-29T11:15:38;2.57;;;1.90;;
4519;SDS011;2272;49.226;8.108;2022-12-29T11:18:17;5.77;;;1.70;;
4519;SDS011;2272;49.226;8.108;2022-12-29T11:20:46;1.80;;;1.70;;
4519;SDS011;2272;49.226;8.108;2022-12-29T11:23:25;3.27;;;1.70;;
4519;SDS011;2272;49.226;8.108;2022-12-29T11:26:12;2.23;;;1.73;;
4519;SDS011;2272;49.226;8.108;2022-12-29T11:28:41;2.90;;;1.67;;
4519;SDS011;2272;49.226;8.108;2022-12-29T11:31:10;2.70;;;1.83;;
4519;SDS011;2272;49.226;8.108;2022-12-29T11:33:37;3.50;;;1.43;;
4519;SDS011;2272;49.226;8.108;2022-12-29T11:36:07;1.97;;;1.87;;
4519;SDS011;2272;49.226;8.108;2022-12-29T11:38:38;2.20;;;1.83;;
4519;SDS011;2272;49.226;8.108;2022-12-29T11:41:10;3.27;;;1.40;;
4519;SDS011;2272;49.226;8.108;2022-12-29T11:43:40;5.20;;;2.00;;
4519;SDS011;2272;49.226;8.108;2022-12-29T11:46:12;2.70;;;2.50;;
4519;SDS011;2272;49.226;8.108;2022-12-29T11:48:42;6.60;;;2.50;;
4519;SDS011;2272;49.226;8.108;2022-12-29T11:51:11;5.50;;;3.10;;
4519;SDS011;2272;49.226;8.108;2022-12-29T11:53:39;5.93;;;2.17;;
4519;SDS011;2272;49.226;8.108;2022-12-29T11:56:10;2.60;;;2.40;;
4519;SDS011;2272;49.226;8.108;2022-12-29T11:58:41;6.90;;;2.70;;
4519;SDS011;2272;49.226;8.108;2022-12-29T12:01:10;3.93;;;1.80;;
4519;SDS011;2272;49.226;8.108;2022-12-29T12:03:44;3.23;;;2.57;;
4519;SDS011;2272;49.226;8.108;2022-12-29T12:06:18;2.67;;;2.47;;
4519;SDS011;2272;49.226;8.108;2022-12-29T12:08:51;9.43;;;3.47;;
4519;SDS011;2272;49.226;8.108;2022-12-29T12:11:22;2.60;;;2.40;;
4519;SDS011;2272;49.226;8.108;2022-12-29T12:13:55;19.67;;;2.27;;
4519;SDS011;2272;49.226;8.108;2022-12-29T12:16:27;8.40;;;3.30;;
4519;SDS011;2272;49.226;8.108;2022-12-29T12:19:00;4.73;;;2.80;;
4519;SDS011;2272;49.226;8.108;2022-12-29T12:21:32;13.83;;;2.07;;
4519;SDS011;2272;49.226;8.108;2022-12-29T12:24:08;3.80;;;2.63;;
4519;SDS011;2272;49.226;8.108;2022-12-29T12:26:55;4.40;;;3.33;;
4519;SDS011;2272;49.226;8.108;2022-12-29T12:29:28;2.40;;;2.20;;
4519;SDS011;2272;49.226;8.108;2022-12-29T12:32:03;6.23;;;1.20;;
4519;SDS011;2272;49.226;8.108;2022-12-29T12:34:38;3.13;;;1.50;;
4519;SDS011;2272;49.226;8.108;2022-12-29T12:40:11;2.83;;;2.40;;
4519;SDS011;2272;49.226;8.108;2022-12-29T12:42:48;7.20;;;1.53;;
4519;SDS011;2272;49.226;8.108;2022-12-29T12:45:26;2.60;;;2.40;;
4519;SDS011;2272;49.226;8.108;2022-12-29T12:48:07;1.70;;;1.60;;
4519;SDS011;2272;49.226;8.108;2022-12-29T12:50:51;1.93;;;1.63;;
4519;SDS011;2272;49.226;8.108;2022-12-29T12:53:28;5.40;;;1.70;;
4519;SDS011;2272;49.226;8.108;2022-12-29T12:56:15;2.67;;;2.00;;
4519;SDS011;2272;49.226;8.108;2022-12-29T12:58:59;3.57;;;2.70;;
4519;SDS011;2272;49.226;8.108;2022-12-29T13:01:38;11.93;;;2.07;;
4519;SDS011;2272;49.226;8.108;2022-12-29T13:04:19;1.63;;;1.30;;
4519;SDS011;2272;49.226;8.108;2022-12-29T13:07:02;7.03;;;2.00;;
4519;SDS011;2272;49.226;8.108;2022-12-29T13:09:41;2.93;;;1.80;;
4519;SDS011;2272;49.226;8.108;2022-12-29T13:12:17;1.33;;;1.20;;
4519;SDS011;2272;49.226;8.108;2022-12-29T13:14:56;2.67;;;2.07;;
4519;SDS011;2272;49.226;8.108;2022-12-29T13:17:30;2.40;;;1.67;;
4519;SDS011;2272;49.226;8.108;2022-12-29T13:20:05;6.77;;;2.33;;
4519;SDS011;2272;49.226;8.108;2022-12-29T13:22:42;4.30;;;1.37;;
4519;SDS011;2272;49.226;8.108;2022-12-29T13:25:27;5.90;;;3.30;;
4519;SDS011;2272;49.226;8.108;2022-12-29T13:27:59;3.10;;;1.70;;
4519;SDS011;2272;49.226;8.108;2022-12-29T13:30:32;5.07;;;1.27;;
4519;SDS011;2272;49.226;8.108;2022-12-29T13:33:04;2.20;;;2.00;;
4519;SDS011;2272;49.226;8.108;2022-12-29T13:35:46;2.93;;;1.70;;
4519;SDS011;2272;49.226;8.108;2022-12-29T13:38:22;1.87;;;1.73;;
4519;SDS011;2272;49.226;8.108;2022-12-29T13:40:56;10.87;;;1.97;;
4519;SDS011;2272;49.226;8.108;2022-12-29T13:43:28;1.67;;;1.40;;
4519;SDS011;2272;49.226;8.108;2022-12-29T13:46:01;3.43;;;1.60;;
4519;SDS011;2272;49.226;8.108;2022-12-29T13:48:35;5.77;;;1.67;;
4519;SDS011;2272;49.226;8.108;2022-12-29T13:51:06;6.97;;;1.60;;
4519;SDS011;2272;49.226;8.108;2022-12-29T13:53:36;2.40;;;1.37;;
4519;SDS011;2272;49.226;8.108;2022-12-29T13:56:12;1.20;;;1.00;;
4519;SDS011;2272;49.226;8.108;2022-12-29T13:58:47;1.63;;;1.53;;
4519;SDS011;2272;49.226;8.108;2022-12-29T14:01:18;1.60;;;1.50;;
4519;SDS011;2272;49.226;8.108;2022-12-29T14:03:50;1.67;;;1.20;;
4519;SDS011;2272;49.226;8.108;2022-12-29T14:06:22;2.20;;;1.33;;
4519;SDS011;2272;49.226;8.108;2022-12-29T14:08:51;1.90;;;1.00;;
4519;SDS011;2272;49.226;8.108;2022-12-29T14:11:21;1.77;;;1.43;;
4519;SDS011;2272;49.226;8.108;2022-12-29T14:13:50;1.53;;;1.13;;
4519;SDS011;2272;49.226;8.108;2022-12-29T14:16:28;2.27;;;0.80;;
4519;SDS011;2272;49.226;8.108;2022-12-29T14:19:03;1.10;;;1.00;;
4519;SDS011;2272;49.226;8.108;2022-12-29T14:21:35;1.10;;;1.00;;
4519;SDS011;2272;49.226;8.108;2022-12-29T14:33:15;1.10;;;1.00;;
4519;SDS011;2272;49.226;8.108;2022-12-29T14:35:43;4.10;;;0.80;;
4519;SDS011;2272;49.226;8.108;2022-12-29T14:38:15;5.47;;;1.80;;
4519;SDS011;2272;49.226;8.108;2022-12-29T14:40:44;2.60;;;1.03;;
4519;SDS011;2272;49.226;8.108;2022-12-29T14:43:12;2.60;;;1.10;;
4519;SDS011;2272;49.226;8.108;2022-12-29T14:45:44;3.10;;;2.20;;
4519;SDS011;2272;49.226;8.108;2022-12-29T14:48:27;2.43;;;1.63;;
4519;SDS011;2272;49.226;8.108;2022-12-29T14:51:17;4.57;;;1.77;;
4519;SDS011;2272;49.226;8.108;2022-12-29T14:53:46;1.53;;;0.80;;
4519;SDS011;2272;49.226;8.108;2022-12-29T14:56:14;1.50;;;1.40;;
4519;SDS011;2272;49.226;8.108;2022-12-29T14:58:44;2.00;;;1.90;;
4519;SDS011;2272;49.226;8.108;2022-12-29T15:03:49;3.00;;;2.10;;
4519;SDS011;2272;49.226;8.108;2022-12-29T15:06:18;1.90;;;1.70;;
4519;SDS011;2272;49.226;8.108;2022-12-29T15:08:49;2.90;;;1.27;;
4519;SDS011;2272;49.226;8.108;2022-12-29T15:11:18;8.20;;;5.60;;
4519;SDS011;2272;49.226;8.108;2022-12-29T15:13:46;11.80;;;7.47;;
4519;SDS011;2272;49.226;8.108;2022-12-29T15:16:23;7.80;;;6.50;;
4519;SDS011;2272;49.226;8.108;2022-12-29T15:18:51;1.43;;;1.33;;
4519;SDS011;2272;49.226;8.108;2022-12-29T15:21:18;3.53;;;2.00;;
4519;SDS011;2272;49.226;8.108;2022-12-29T15:23:49;1.87;;;1.77;;
4519;SDS011;2272;49.226;8.108;2022-12-29T15:26:16;2.87;;;2.50;;
4519;SDS011;2272;49.226;8.108;2022-12-29T15:28:47;13.80;;;7.03;;
4519;SDS011;2272;49.226;8.108;2022-12-29T15:31:16;14.60;;;8.70;;
4519;SDS011;2272;49.226;8.108;2022-12-29T15:33:47;10.90;;;6.57;;
4519;SDS011;2272;49.226;8.108;2022-12-29T15:36:18;7.67;;;5.07;;
4519;SDS011;2272;49.226;8.108;2022-12-29T15:38:47;5.43;;;4.23;;
4519;SDS011;2272;49.226;8.108;2022-12-29T15:41:20;8.53;;;4.50;;
4519;SDS011;2272;49.226;8.108;2022-12-29T15:44:01;6.63;;;4.53;;
4519;SDS011;2272;49.226;8.108;2022-12-29T15:46:34;9.37;;;5.70;;
4519;SDS011;2272;49.226;8.108;2022-12-29T15:49:05;4.50;;;3.70;;
4519;SDS011;2272;49.226;8.108;2022-12-29T15:51:34;3.50;;;3.20;;
4519;SDS011;2272;49.226;8.108;2022-12-29T15:54:03;5.63;;;5.00;;
4519;SDS011;2272;49.226;8.108;2022-12-29T15:56:31;7.27;;;5.10;;